sensor_id;sensor_type;location;lat;lon;timestamp;temperature;humidity
37408;DHT22;24866;50.248;8.252;2023-03-05T00:00:51;3.80;99.90
37408;DHT22;24866;50.248;8.252;2023-03-05T00:03:20;3.80;99.90
37408;DHT22;24866;50.248;8.252;2023-03-05T00:05:55;3.80;99.90
37408;DHT22;24866;50.248;8.252;2023-03-05T00:08:27;3.80;99.90
37408;DHT22;24866;50.248;8.252;2023-03-05T00:10:57;3.80;99.90
37408;DHT22;24866;50.248;8.252;2023-03-05T00:13:28;3.70;99.90
37408;DHT22;24866;50.248;8.252;2023-03-05T00:15:58;3.80;99.90
37408;DHT22;24866;50.248;8.252;2023-03-05T00:18:28;3.80;99.90
37408;DHT22;24866;50.248;8.252;2023-03-05T00:20:58;3.80;99.90
37408;DHT22;24866;50.248;8.252;2023-03-05T00:23:30;3.80;99.90
37408;DHT22;24866;50.248;8.252;2023-03-05T00:26:01;3.70;99.90
37408;DHT22;24866;50.248;8.252;2023-03-05T00:28:31;3.70;99.90
37408;DHT22;24866;50.248;8.252;2023-03-05T00:31:01;3.70;99.90
37408;DHT22;24866;50.248;8.252;2023-03-05T00:33:31;3.70;99.90
37408;DHT22;24866;50.248;8.252;2023-03-05T00:36:05;3.70;99.90
37408;DHT22;24866;50.248;8.252;2023-03-05T00:38:37;3.80;99.90
37408;DHT22;24866;50.248;8.252;2023-03-05T00:41:07;3.70;99.90
37408;DHT22;24866;50.248;8.252;2023-03-05T00:43:38;3.70;99.90
37408;DHT22;24866;50.248;8.252;2023-03-05T00:46:08;3.70;99.90
37408;DHT22;24866;50.248;8.252;2023-03-05T00:48:38;3.70;99.90
37408;DHT22;24866;50.248;8.252;2023-03-05T00:51:08;3.70;99.90
37408;DHT22;24866;50.248;8.252;2023-03-05T00:53:39;3.70;99.90
37408;DHT22;24866;50.248;8.252;2023-03-05T00:56:09;3.60;99.90
37408;DHT22;24866;50.248;8.252;2023-03-05T00:58:39;3.70;99.90
37408;DHT22;24866;50.248;8.252;2023-03-05T01:01:10;3.70;99.90
37408;DHT22;24866;50.248;8.252;2023-03-05T01:03:40;3.60;99.90
37408;DHT22;24866;50.248;8.252;2023-03-05T01:06:11;3.60;99.90
37408;DHT22;24866;50.248;8.252;2023-03-05T01:08:44;3.70;99.90
37408;DHT22;24866;50.248;8.252;2023-03-05T01:11:14;3.70;99.90
37408;DHT22;24866;50.248;8.252;2023-03-05T01:13:44;3.70;99.90
37408;DHT22;24866;50.248;8.252;2023-03-05T01:16:14;3.70;99.90
37408;DHT22;24866;50.248;8.252;2023-03-05T01:18:44;3.70;99.90
37408;DHT22;24866;50.248;8.252;2023-03-05T01:21:14;3.70;99.90
37408;DHT22;24866;50.248;8.252;2023-03-05T01:23:46;3.70;99.90
37408;DHT22;24866;50.248;8.252;2023-03-05T01:26:16;3.70;99.90
37408;DHT22;24866;50.248;8.252;2023-03-05T01:28:47;3.60;99.90
37408;DHT22;24866;50.248;8.252;2023-03-05T01:31:17;3.50;99.90
37408;DHT22;24866;50.248;8.252;2023-03-05T01:33:47;3.50;99.90
37408;DHT22;24866;50.248;8.252;2023-03-05T01:36:17;3.60;99.90
37408;DHT22;24866;50.248;8.252;2023-03-05T01:38:48;3.50;99.90
37408;DHT22;24866;50.248;8.252;2023-03-05T01:41:19;3.50;99.90
37408;DHT22;24866;50.248;8.252;2023-03-05T01:43:49;3.50;99.90
37408;DHT22;24866;50.248;8.252;2023-03-05T01:46:27;3.50;99.90
37408;DHT22;24866;50.248;8.252;2023-03-05T01:49:15;3.60;99.90
37408;DHT22;24866;50.248;8.252;2023-03-05T01:51:52;3.60;99.90
37408;DHT22;24866;50.248;8.252;2023-03-05T01:54:28;3.60;99.90
37408;DHT22;24866;50.248;8.252;2023-03-05T01:57:05;3.60;99.90
37408;DHT22;24866;50.248;8.252;2023-03-05T01:59:37;3.60;99.90
37408;DHT22;24866;50.248;8.252;2023-03-05T02:02:09;3.60;99.90
37408;DHT22;24866;50.248;8.252;2023-03-05T02:04:43;3.60;99.90
37408;DHT22;24866;50.248;8.252;2023-03-05T02:07:15;3.60;99.90
37408;DHT22;24866;50.248;8.252;2023-03-05T02:09:47;3.60;99.90
37408;DHT22;24866;50.248;8.252;2023-03-05T02:12:17;3.70;99.90
37408;DHT22;24866;50.248;8.252;2023-03-05T02:14:49;3.60;99.90
37408;DHT22;24866;50.248;8.252;2023-03-05T02:17:26;3.60;99.90
37408;DHT22;24866;50.248;8.252;2023-03-05T02:20:03;3.60;99.90
37408;DHT22;24866;50.248;8.252;2023-03-05T02:22:35;3.60;99.90
37408;DHT22;24866;50.248;8.252;2023-03-05T02:25:14;3.60;99.90
37408;DHT22;24866;50.248;8.252;2023-03-05T02:27:50;3.60;99.90
37408;DHT22;24866;50.248;8.252;2023-03-05T02:30:21;3.60;99.90
37408;DHT22;24866;50.248;8.252;2023-03-05T02:32:50;3.60;99.90
37408;DHT22;24866;50.248;8.252;2023-03-05T02:35:21;3.50;99.90
37408;DHT22;24866;50.248;8.252;2023-03-05T02:37:52;3.60;99.90
37408;DHT22;24866;50.248;8.252;2023-03-05T02:40:22;3.50;99.90
37408;DHT22;24866;50.248;8.252;2023-03-05T02:42:52;3.50;99.90
37408;DHT22;24866;50.248;8.252;2023-03-05T02:45:22;3.50;99.90
37408;DHT22;24866;50.248;8.252;2023-03-05T02:47:52;3.50;99.90
37408;DHT22;24866;50.248;8.252;2023-03-05T02:50:23;3.60;99.90
37408;DHT22;24866;50.248;8.252;2023-03-05T02:52:54;3.50;99.90
37408;DHT22;24866;50.248;8.252;2023-03-05T02:55:24;3.50;99.90
37408;DHT22;24866;50.248;8.252;2023-03-05T02:57:54;3.50;99.90
37408;DHT22;24866;50.248;8.252;2023-03-05T03:00:25;3.40;99.90
37408;DHT22;24866;50.248;8.252;2023-03-05T03:02:55;3.40;99.90
37408;DHT22;24866;50.248;8.252;2023-03-05T03:05:25;3.40;99.90
37408;DHT22;24866;50.248;8.252;2023-03-05T03:07:58;3.40;99.90
37408;DHT22;24866;50.248;8.252;2023-03-05T03:10:28;3.40;99.90
37408;DHT22;24866;50.248;8.252;2023-03-05T03:12:59;3.40;99.90
37408;DHT22;24866;50.248;8.252;2023-03-05T03:15:29;3.40;99.90
37408;DHT22;24866;50.248;8.252;2023-03-05T03:18:00;3.30;99.90
37408;DHT22;24866;50.248;8.252;2023-03-05T03:20:31;3.30;99.90
37408;DHT22;24866;50.248;8.252;2023-03-05T03:23:04;3.30;99.90
37408;DHT22;24866;50.248;8.252;2023-03-05T03:25:34;3.30;99.90
37408;DHT22;24866;50.248;8.252;2023-03-05T03:28:04;3.20;99.90
37408;DHT22;24866;50.248;8.252;2023-03-05T03:30:34;3.20;99.90
37408;DHT22;24866;50.248;8.252;2023-03-05T03:33:05;3.20;99.90
37408;DHT22;24866;50.248;8.252;2023-03-05T03:35:35;3.20;99.90
37408;DHT22;24866;50.248;8.252;2023-03-05T03:38:07;3.10;99.90
37408;DHT22;24866;50.248;8.252;2023-03-05T03:40:37;3.10;99.90
37408;DHT22;24866;50.248;8.252;2023-03-05T03:43:07;3.10;99.90
37408;DHT22;24866;50.248;8.252;2023-03-05T03:45:40;3.10;99.90
37408;DHT22;24866;50.248;8.252;2023-03-05T03:48:10;3.10;99.90
37408;DHT22;24866;50.248;8.252;2023-03-05T03:50:41;3.10;99.90
37408;DHT22;24866;50.248;8.252;2023-03-05T03:53:13;3.10;99.90
37408;DHT22;24866;50.248;8.252;2023-03-05T03:55:44;3.10;99.90
37408;DHT22;24866;50.248;8.252;2023-03-05T03:58:15;3.10;99.90
37408;DHT22;24866;50.248;8.252;2023-03-05T04:00:44;3.10;99.90
37408;DHT22;24866;50.248;8.252;2023-03-05T04:03:14;3.10;99.90
37408;DHT22;24866;50.248;8.252;2023-03-05T04:05:44;3.00;99.90
37408;DHT22;24866;50.248;8.252;2023-03-05T04:08:16;3.00;99.90
37408;DHT22;24866;50.248;8.252;2023-03-05T04:10:46;3.10;99.90
37408;DHT22;24866;50.248;8.252;2023-03-05T04:13:16;3.00;99.90
37408;DHT22;24866;50.248;8.252;2023-03-05T04:15:46;3.10;99.90
37408;DHT22;24866;50.248;8.252;2023-03-05T04:18:16;3.10;99.90
37408;DHT22;24866;50.248;8.252;2023-03-05T04:20:46;3.00;99.90
37408;DHT22;24866;50.248;8.252;2023-03-05T04:23:17;3.00;99.90
37408;DHT22;24866;50.248;8.252;2023-03-05T04:25:48;3.20;99.90
37408;DHT22;24866;50.248;8.252;2023-03-05T04:28:18;3.20;99.90
37408;DHT22;24866;50.248;8.252;2023-03-05T04:30:48;3.10;99.90
37408;DHT22;24866;50.248;8.252;2023-03-05T04:33:18;3.20;99.90
37408;DHT22;24866;50.248;8.252;2023-03-05T04:35:48;3.10;99.90
37408;DHT22;24866;50.248;8.252;2023-03-05T04:38:19;3.10;99.90
37408;DHT22;24866;50.248;8.252;2023-03-05T04:40:49;3.00;99.90
37408;DHT22;24866;50.248;8.252;2023-03-05T04:43:19;3.10;99.90
37408;DHT22;24866;50.248;8.252;2023-03-05T04:45:49;3.10;99.90
37408;DHT22;24866;50.248;8.252;2023-03-05T04:48:20;2.90;99.90
37408;DHT22;24866;50.248;8.252;2023-03-05T04:50:50;2.90;99.90
37408;DHT22;24866;50.248;8.252;2023-03-05T04:53:22;2.80;99.90
37408;DHT22;24866;50.248;8.252;2023-03-05T04:55:52;2.80;99.90
37408;DHT22;24866;50.248;8.252;2023-03-05T04:58:23;2.80;99.90
37408;DHT22;24866;50.248;8.252;2023-03-05T05:00:53;2.80;99.90
37408;DHT22;24866;50.248;8.252;2023-03-05T05:03:23;2.90;99.90
37408;DHT22;24866;50.248;8.252;2023-03-05T05:05:54;2.80;99.90
37408;DHT22;24866;50.248;8.252;2023-03-05T05:08:26;2.80;99.90
37408;DHT22;24866;50.248;8.252;2023-03-05T05:10:58;3.00;99.90
37408;DHT22;24866;50.248;8.252;2023-03-05T05:13:28;2.90;99.90
37408;DHT22;24866;50.248;8.252;2023-03-05T05:15:59;2.90;99.90
37408;DHT22;24866;50.248;8.252;2023-03-05T05:18:29;2.90;99.90
37408;DHT22;24866;50.248;8.252;2023-03-05T05:20:59;2.90;99.90
37408;DHT22;24866;50.248;8.252;2023-03-05T05:23:30;2.90;99.90
37408;DHT22;24866;50.248;8.252;2023-03-05T05:26:01;2.90;99.90
37408;DHT22;24866;50.248;8.252;2023-03-05T05:28:32;2.90;99.90
37408;DHT22;24866;50.248;8.252;2023-03-05T05:31:06;3.00;99.90
37408;DHT22;24866;50.248;8.252;2023-03-05T05:33:36;3.00;99.90
37408;DHT22;24866;50.248;8.252;2023-03-05T05:36:08;2.90;99.90
37408;DHT22;24866;50.248;8.252;2023-03-05T05:38:41;2.90;99.90
37408;DHT22;24866;50.248;8.252;2023-03-05T05:41:13;2.80;99.90
37408;DHT22;24866;50.248;8.252;2023-03-05T05:43:43;2.80;99.90
37408;DHT22;24866;50.248;8.252;2023-03-05T05:46:16;2.70;99.90
37408;DHT22;24866;50.248;8.252;2023-03-05T05:48:46;2.60;99.90
37408;DHT22;24866;50.248;8.252;2023-03-05T05:51:18;2.40;99.90
37408;DHT22;24866;50.248;8.252;2023-03-05T05:53:50;2.40;99.90
37408;DHT22;24866;50.248;8.252;2023-03-05T05:56:20;2.40;99.90
37408;DHT22;24866;50.248;8.252;2023-03-05T05:58:50;2.40;99.90
37408;DHT22;24866;50.248;8.252;2023-03-05T06:01:22;2.40;99.90
37408;DHT22;24866;50.248;8.252;2023-03-05T06:03:53;2.40;99.90
37408;DHT22;24866;50.248;8.252;2023-03-05T06:06:24;2.40;99.90
37408;DHT22;24866;50.248;8.252;2023-03-05T06:08:56;2.40;99.90
37408;DHT22;24866;50.248;8.252;2023-03-05T06:11:26;2.40;99.90
37408;DHT22;24866;50.248;8.252;2023-03-05T06:13:57;2.50;99.90
37408;DHT22;24866;50.248;8.252;2023-03-05T06:16:27;2.50;99.90
37408;DHT22;24866;50.248;8.252;2023-03-05T06:18:57;2.40;99.90
37408;DHT22;24866;50.248;8.252;2023-03-05T06:21:32;2.40;99.90
37408;DHT22;24866;50.248;8.252;2023-03-05T06:24:04;2.30;99.90
37408;DHT22;24866;50.248;8.252;2023-03-05T06:26:34;2.30;99.90
37408;DHT22;24866;50.248;8.252;2023-03-05T06:29:04;2.30;99.90
37408;DHT22;24866;50.248;8.252;2023-03-05T06:31:34;2.30;99.90
37408;DHT22;24866;50.248;8.252;2023-03-05T06:34:04;2.30;99.90
37408;DHT22;24866;50.248;8.252;2023-03-05T06:36:34;2.30;99.90
37408;DHT22;24866;50.248;8.252;2023-03-05T06:39:06;2.50;99.90
37408;DHT22;24866;50.248;8.252;2023-03-05T06:41:36;2.50;99.90
37408;DHT22;24866;50.248;8.252;2023-03-05T06:44:06;2.50;99.90
37408;DHT22;24866;50.248;8.252;2023-03-05T06:46:37;2.50;99.90
37408;DHT22;24866;50.248;8.252;2023-03-05T06:49:08;2.50;99.90
37408;DHT22;24866;50.248;8.252;2023-03-05T06:51:39;2.60;99.90
37408;DHT22;24866;50.248;8.252;2023-03-05T06:54:13;2.70;99.90
37408;DHT22;24866;50.248;8.252;2023-03-05T06:56:45;2.60;99.90
37408;DHT22;24866;50.248;8.252;2023-03-05T06:59:16;2.70;99.90
37408;DHT22;24866;50.248;8.252;2023-03-05T07:01:47;2.70;99.90
37408;DHT22;24866;50.248;8.252;2023-03-05T07:04:17;2.60;99.90
37408;DHT22;24866;50.248;8.252;2023-03-05T07:06:49;2.50;99.90
37408;DHT22;24866;50.248;8.252;2023-03-05T07:09:20;2.60;99.90
37408;DHT22;24866;50.248;8.252;2023-03-05T07:11:50;2.60;99.90
37408;DHT22;24866;50.248;8.252;2023-03-05T07:14:20;2.60;99.90
37408;DHT22;24866;50.248;8.252;2023-03-05T07:16:51;2.70;99.90
37408;DHT22;24866;50.248;8.252;2023-03-05T07:19:21;2.60;99.90
37408;DHT22;24866;50.248;8.252;2023-03-05T07:21:51;2.60;99.90
37408;DHT22;24866;50.248;8.252;2023-03-05T07:24:22;2.70;99.90
37408;DHT22;24866;50.248;8.252;2023-03-05T07:26:57;2.60;99.90
37408;DHT22;24866;50.248;8.252;2023-03-05T07:29:29;2.60;99.90
37408;DHT22;24866;50.248;8.252;2023-03-05T07:31:59;2.60;99.90
37408;DHT22;24866;50.248;8.252;2023-03-05T07:34:29;2.60;99.90
37408;DHT22;24866;50.248;8.252;2023-03-05T07:37:00;2.70;99.90
37408;DHT22;24866;50.248;8.252;2023-03-05T07:39:31;2.70;99.90
37408;DHT22;24866;50.248;8.252;2023-03-05T07:42:01;2.70;99.90
37408;DHT22;24866;50.248;8.252;2023-03-05T07:44:31;2.70;99.90
37408;DHT22;24866;50.248;8.252;2023-03-05T07:47:01;2.70;99.90
37408;DHT22;24866;50.248;8.252;2023-03-05T07:49:31;2.70;99.90
37408;DHT22;24866;50.248;8.252;2023-03-05T07:52:03;2.70;99.90
37408;DHT22;24866;50.248;8.252;2023-03-05T07:54:36;2.70;99.90
37408;DHT22;24866;50.248;8.252;2023-03-05T07:57:07;2.80;99.90
37408;DHT22;24866;50.248;8.252;2023-03-05T07:59:38;2.90;99.90
37408;DHT22;24866;50.248;8.252;2023-03-05T08:02:09;2.90;99.90
37408;DHT22;24866;50.248;8.252;2023-03-05T08:04:39;2.90;99.90
37408;DHT22;24866;50.248;8.252;2023-03-05T08:07:13;2.90;99.90
37408;DHT22;24866;50.248;8.252;2023-03-05T08:09:44;2.80;99.90
37408;DHT22;24866;50.248;8.252;2023-03-05T08:12:14;2.80;99.90
37408;DHT22;24866;50.248;8.252;2023-03-05T08:14:44;2.90;99.90
37408;DHT22;24866;50.248;8.252;2023-03-05T08:17:15;2.80;99.90
37408;DHT22;24866;50.248;8.252;2023-03-05T08:19:45;2.80;99.90
37408;DHT22;24866;50.248;8.252;2023-03-05T08:22:15;2.90;99.90
37408;DHT22;24866;50.248;8.252;2023-03-05T08:24:49;3.00;99.90
37408;DHT22;24866;50.248;8.252;2023-03-05T08:27:19;3.10;99.90
37408;DHT22;24866;50.248;8.252;2023-03-05T08:29:49;3.10;99.90
37408;DHT22;24866;50.248;8.252;2023-03-05T08:32:19;3.00;99.90
37408;DHT22;24866;50.248;8.252;2023-03-05T08:34:49;3.10;99.90
37408;DHT22;24866;50.248;8.252;2023-03-05T08:37:19;3.10;99.90
37408;DHT22;24866;50.248;8.252;2023-03-05T08:39:51;3.10;99.90
37408;DHT22;24866;50.248;8.252;2023-03-05T08:42:20;3.20;99.90
37408;DHT22;24866;50.248;8.252;2023-03-05T08:44:50;3.20;99.90
37408;DHT22;24866;50.248;8.252;2023-03-05T08:47:20;3.20;99.90
37408;DHT22;24866;50.248;8.252;2023-03-05T08:49:53;3.30;99.90
37408;DHT22;24866;50.248;8.252;2023-03-05T08:52:23;3.30;99.90
37408;DHT22;24866;50.248;8.252;2023-03-05T08:54:56;3.40;99.90
37408;DHT22;24866;50.248;8.252;2023-03-05T08:57:26;3.30;99.90
37408;DHT22;24866;50.248;8.252;2023-03-05T08:59:58;3.20;99.90
37408;DHT22;24866;50.248;8.252;2023-03-05T09:02:28;3.20;99.90
37408;DHT22;24866;50.248;8.252;2023-03-05T09:04:59;3.10;99.90
37408;DHT22;24866;50.248;8.252;2023-03-05T09:07:29;3.10;99.90
37408;DHT22;24866;50.248;8.252;2023-03-05T09:10:00;3.10;99.90
37408;DHT22;24866;50.248;8.252;2023-03-05T09:12:30;3.00;99.90
37408;DHT22;24866;50.248;8.252;2023-03-05T09:15:00;3.00;99.90
37408;DHT22;24866;50.248;8.252;2023-03-05T09:17:30;2.90;99.90
37408;DHT22;24866;50.248;8.252;2023-03-05T09:20:00;2.90;99.90
37408;DHT22;24866;50.248;8.252;2023-03-05T09:22:30;2.90;99.90
37408;DHT22;24866;50.248;8.252;2023-03-05T09:25:02;3.00;99.90
37408;DHT22;24866;50.248;8.252;2023-03-05T09:27:32;2.90;99.90
37408;DHT22;24866;50.248;8.252;2023-03-05T09:30:04;2.90;99.90
37408;DHT22;24866;50.248;8.252;2023-03-05T09:32:34;3.10;99.90
37408;DHT22;24866;50.248;8.252;2023-03-05T09:35:05;3.10;99.90
37408;DHT22;24866;50.248;8.252;2023-03-05T09:37:36;3.00;99.90
37408;DHT22;24866;50.248;8.252;2023-03-05T09:40:12;3.10;99.90
37408;DHT22;24866;50.248;8.252;2023-03-05T09:42:53;3.00;99.90
37408;DHT22;24866;50.248;8.252;2023-03-05T09:45:27;3.00;99.90
37408;DHT22;24866;50.248;8.252;2023-03-05T09:48:08;3.10;99.90
37408;DHT22;24866;50.248;8.252;2023-03-05T09:50:43;3.00;99.90
37408;DHT22;24866;50.248;8.252;2023-03-05T09:53:20;2.90;99.90
37408;DHT22;24866;50.248;8.252;2023-03-05T09:55:54;2.90;99.90
37408;DHT22;24866;50.248;8.252;2023-03-05T09:58:30;2.90;99.90
37408;DHT22;24866;50.248;8.252;2023-03-05T10:01:05;2.70;99.90
37408;DHT22;24866;50.248;8.252;2023-03-05T10:03:48;2.70;99.90
37408;DHT22;24866;50.248;8.252;2023-03-05T10:06:21;2.90;99.90
37408;DHT22;24866;50.248;8.252;2023-03-05T10:08:55;2.90;99.90
37408;DHT22;24866;50.248;8.252;2023-03-05T10:11:40;2.70;99.90
37408;DHT22;24866;50.248;8.252;2023-03-05T10:14:14;2.70;99.90
37408;DHT22;24866;50.248;8.252;2023-03-05T10:23:00;2.50;99.90
37408;DHT22;24866;50.248;8.252;2023-03-05T10:25:49;2.50;99.90
37408;DHT22;24866;50.248;8.252;2023-03-05T10:28:31;2.60;99.90
37408;DHT22;24866;50.248;8.252;2023-03-05T10:34:44;2.80;99.90
37408;DHT22;24866;50.248;8.252;2023-03-05T10:37:32;2.90;99.90
37408;DHT22;24866;50.248;8.252;2023-03-05T10:40:13;3.10;99.90
37408;DHT22;24866;50.248;8.252;2023-03-05T10:42:49;3.00;99.90
37408;DHT22;24866;50.248;8.252;2023-03-05T10:45:25;3.10;99.90
37408;DHT22;24866;50.248;8.252;2023-03-05T10:48:02;3.20;99.90
37408;DHT22;24866;50.248;8.252;2023-03-05T10:50:36;3.30;99.90
37408;DHT22;24866;50.248;8.252;2023-03-05T10:53:16;3.10;99.90
37408;DHT22;24866;50.248;8.252;2023-03-05T10:55:48;3.20;99.90
37408;DHT22;24866;50.248;8.252;2023-03-05T10:58:24;3.20;99.90
37408;DHT22;24866;50.248;8.252;2023-03-05T11:01:01;3.30;99.90
37408;DHT22;24866;50.248;8.252;2023-03-05T11:03:53;3.20;99.90
37408;DHT22;24866;50.248;8.252;2023-03-05T11:06:29;3.30;99.90
37408;DHT22;24866;50.248;8.252;2023-03-05T11:09:21;3.60;99.90
37408;DHT22;24866;50.248;8.252;2023-03-05T11:12:05;3.70;99.90
37408;DHT22;24866;50.248;8.252;2023-03-05T11:14:40;3.70;99.90
37408;DHT22;24866;50.248;8.252;2023-03-05T11:17:33;3.90;99.90
37408;DHT22;24866;50.248;8.252;2023-03-05T11:20:29;3.60;99.90
37408;DHT22;24866;50.248;8.252;2023-03-05T11:23:10;3.60;99.90
37408;DHT22;24866;50.248;8.252;2023-03-05T11:26:02;3.60;99.90
37408;DHT22;24866;50.248;8.252;2023-03-05T11:28:34;3.60;99.90
37408;DHT22;24866;50.248;8.252;2023-03-05T11:31:11;3.80;99.90
37408;DHT22;24866;50.248;8.252;2023-03-05T11:33:58;4.00;99.90
37408;DHT22;24866;50.248;8.252;2023-03-05T11:36:30;3.90;99.90
37408;DHT22;24866;50.248;8.252;2023-03-05T11:39:08;4.00;99.90
37408;DHT22;24866;50.248;8.252;2023-03-05T11:41:40;3.90;99.90
37408;DHT22;24866;50.248;8.252;2023-03-05T11:44:13;3.80;99.90
37408;DHT22;24866;50.248;8.252;2023-03-05T11:46:47;3.80;99.90
37408;DHT22;24866;50.248;8.252;2023-03-05T11:49:22;3.80;99.90
37408;DHT22;24866;50.248;8.252;2023-03-05T11:52:02;3.80;99.90
37408;DHT22;24866;50.248;8.252;2023-03-05T11:54:39;3.90;99.90
37408;DHT22;24866;50.248;8.252;2023-03-05T11:57:11;3.80;99.90
37408;DHT22;24866;50.248;8.252;2023-03-05T11:59:43;3.90;99.90
37408;DHT22;24866;50.248;8.252;2023-03-05T12:02:19;4.00;99.90
37408;DHT22;24866;50.248;8.252;2023-03-05T12:04:51;4.00;99.90
37408;DHT22;24866;50.248;8.252;2023-03-05T12:07:28;3.80;99.90
37408;DHT22;24866;50.248;8.252;2023-03-05T12:09:59;3.80;99.90
37408;DHT22;24866;50.248;8.252;2023-03-05T12:12:36;4.00;99.90
37408;DHT22;24866;50.248;8.252;2023-03-05T12:15:28;4.00;99.90
37408;DHT22;24866;50.248;8.252;2023-03-05T12:18:09;4.00;99.90
37408;DHT22;24866;50.248;8.252;2023-03-05T12:20:46;4.00;99.90
37408;DHT22;24866;50.248;8.252;2023-03-05T12:23:20;4.00;99.90
37408;DHT22;24866;50.248;8.252;2023-03-05T12:25:51;4.00;99.90
37408;DHT22;24866;50.248;8.252;2023-03-05T12:28:54;3.80;99.90
37408;DHT22;24866;50.248;8.252;2023-03-05T12:31:28;3.80;99.90
37408;DHT22;24866;50.248;8.252;2023-03-05T12:37:10;3.90;99.90
37408;DHT22;24866;50.248;8.252;2023-03-05T12:39:50;4.20;99.90
37408;DHT22;24866;50.248;8.252;2023-03-05T12:42:46;4.10;99.90
37408;DHT22;24866;50.248;8.252;2023-03-05T12:45:26;4.20;99.90
37408;DHT22;24866;50.248;8.252;2023-03-05T12:51:04;4.00;99.90
37408;DHT22;24866;50.248;8.252;2023-03-05T12:53:35;4.20;99.90
37408;DHT22;24866;50.248;8.252;2023-03-05T12:56:14;4.20;99.90
37408;DHT22;24866;50.248;8.252;2023-03-05T12:58:49;4.10;99.90
37408;DHT22;24866;50.248;8.252;2023-03-05T13:01:31;4.10;99.90
37408;DHT22;24866;50.248;8.252;2023-03-05T13:04:05;4.20;99.90
37408;DHT22;24866;50.248;8.252;2023-03-05T13:06:39;4.40;99.90
37408;DHT22;24866;50.248;8.252;2023-03-05T13:09:17;4.30;99.90
37408;DHT22;24866;50.248;8.252;2023-03-05T13:11:51;4.00;99.90
37408;DHT22;24866;50.248;8.252;2023-03-05T13:14:32;4.00;99.90
37408;DHT22;24866;50.248;8.252;2023-03-05T13:17:23;4.10;99.90
37408;DHT22;24866;50.248;8.252;2023-03-05T13:19:54;4.20;99.90
37408;DHT22;24866;50.248;8.252;2023-03-05T13:22:24;4.20;99.90
37408;DHT22;24866;50.248;8.252;2023-03-05T13:25:12;4.20;99.90
37408;DHT22;24866;50.248;8.252;2023-03-05T13:27:42;4.40;99.90
37408;DHT22;24866;50.248;8.252;2023-03-05T13:30:20;4.10;99.90
37408;DHT22;24866;50.248;8.252;2023-03-05T13:32:52;4.10;99.90
37408;DHT22;24866;50.248;8.252;2023-03-05T13:35:23;4.30;99.90
37408;DHT22;24866;50.248;8.252;2023-03-05T13:37:54;4.10;99.90
37408;DHT22;24866;50.248;8.252;2023-03-05T13:40:28;4.10;99.90
37408;DHT22;24866;50.248;8.252;2023-03-05T13:43:08;4.00;1.00
37408;DHT22;24866;50.248;8.252;2023-03-05T13:45:39;4.00;1.00
37408;DHT22;24866;50.248;8.252;2023-03-05T13:48:17;4.10;1.00
37408;DHT22;24866;50.248;8.252;2023-03-05T13:50:53;4.20;1.00
37408;DHT22;24866;50.248;8.252;2023-03-05T13:53:26;4.20;99.90
37408;DHT22;24866;50.248;8.252;2023-03-05T13:55:59;4.00;26.70
37408;DHT22;24866;50.248;8.252;2023-03-05T13:58:44;4.00;1.00
37408;DHT22;24866;50.248;8.252;2023-03-05T14:01:23;3.90;1.00
37408;DHT22;24866;50.248;8.252;2023-03-05T14:03:55;4.00;1.00
37408;DHT22;24866;50.248;8.252;2023-03-05T14:06:27;4.00;1.00
37408;DHT22;24866;50.248;8.252;2023-03-05T14:09:03;4.00;1.00
37408;DHT22;24866;50.248;8.252;2023-03-05T14:11:35;4.10;1.00
37408;DHT22;24866;50.248;8.252;2023-03-05T14:14:08;4.00;1.00
37408;DHT22;24866;50.248;8.252;2023-03-05T14:16:42;4.00;99.90
37408;DHT22;24866;50.248;8.252;2023-03-05T14:19:31;4.00;99.90
37408;DHT22;24866;50.248;8.252;2023-03-05T14:22:03;4.00;99.90
37408;DHT22;24866;50.248;8.252;2023-03-05T14:24:36;4.00;99.90
37408;DHT22;24866;50.248;8.252;2023-03-05T14:27:17;4.00;99.90
37408;DHT22;24866;50.248;8.252;2023-03-05T14:29:49;4.00;99.90
37408;DHT22;24866;50.248;8.252;2023-03-05T14:32:25;4.10;99.90
37408;DHT22;24866;50.248;8.252;2023-03-05T14:34:58;4.20;99.90
37408;DHT22;24866;50.248;8.252;2023-03-05T14:37:32;4.30;99.90
37408;DHT22;24866;50.248;8.252;2023-03-05T14:40:05;4.30;99.90
37408;DHT22;24866;50.248;8.252;2023-03-05T14:42:50;4.20;81.00
37408;DHT22;24866;50.248;8.252;2023-03-05T14:45:24;4.10;5.10
37408;DHT22;24866;50.248;8.252;2023-03-05T14:47:56;4.20;11.50
37408;DHT22;24866;50.248;8.252;2023-03-05T14:50:28;4.20;1.00
37408;DHT22;24866;50.248;8.252;2023-03-05T14:53:00;4.10;1.00
37408;DHT22;24866;50.248;8.252;2023-03-05T14:55:32;4.00;1.00
37408;DHT22;24866;50.248;8.252;2023-03-05T14:58:10;4.00;1.00
37408;DHT22;24866;50.248;8.252;2023-03-05T15:00:41;4.10;1.00
37408;DHT22;24866;50.248;8.252;2023-03-05T15:03:12;4.00;1.00
37408;DHT22;24866;50.248;8.252;2023-03-05T15:05:44;4.10;1.00
37408;DHT22;24866;50.248;8.252;2023-03-05T15:08:16;4.20;1.00
37408;DHT22;24866;50.248;8.252;2023-03-05T15:10:46;4.20;1.00
37408;DHT22;24866;50.248;8.252;2023-03-05T15:13:18;4.10;1.00
37408;DHT22;24866;50.248;8.252;2023-03-05T15:15:50;4.10;1.00
37408;DHT22;24866;50.248;8.252;2023-03-05T15:18:22;4.20;1.00
37408;DHT22;24866;50.248;8.252;2023-03-05T15:20:54;4.20;1.00
37408;DHT22;24866;50.248;8.252;2023-03-05T15:23:24;4.30;1.00
37408;DHT22;24866;50.248;8.252;2023-03-05T15:25:57;4.20;1.00
37408;DHT22;24866;50.248;8.252;2023-03-05T15:28:34;4.30;1.00
37408;DHT22;24866;50.248;8.252;2023-03-05T15:31:05;4.20;99.90
37408;DHT22;24866;50.248;8.252;2023-03-05T15:33:35;4.10;99.90
37408;DHT22;24866;50.248;8.252;2023-03-05T15:36:06;4.10;99.90
37408;DHT22;24866;50.248;8.252;2023-03-05T15:38:37;4.10;99.90
37408;DHT22;24866;50.248;8.252;2023-03-05T15:41:09;4.10;99.90
37408;DHT22;24866;50.248;8.252;2023-03-05T15:43:42;4.00;99.90
37408;DHT22;24866;50.248;8.252;2023-03-05T15:46:13;4.00;99.90
37408;DHT22;24866;50.248;8.252;2023-03-05T15:48:43;4.00;99.90
37408;DHT22;24866;50.248;8.252;2023-03-05T15:51:17;3.90;69.80
37408;DHT22;24866;50.248;8.252;2023-03-05T15:53:48;4.00;99.90
37408;DHT22;24866;50.248;8.252;2023-03-05T15:56:18;4.00;90.40
37408;DHT22;24866;50.248;8.252;2023-03-05T15:58:50;4.00;93.90
37408;DHT22;24866;50.248;8.252;2023-03-05T16:01:20;4.00;25.20
37408;DHT22;24866;50.248;8.252;2023-03-05T16:03:51;4.00;24.60
37408;DHT22;24866;50.248;8.252;2023-03-05T16:06:23;4.20;99.90
37408;DHT22;24866;50.248;8.252;2023-03-05T16:08:56;4.10;84.00
37408;DHT22;24866;50.248;8.252;2023-03-05T16:11:27;4.00;1.00
37408;DHT22;24866;50.248;8.252;2023-03-05T16:14:02;4.00;1.00
37408;DHT22;24866;50.248;8.252;2023-03-05T16:16:33;3.90;1.00
37408;DHT22;24866;50.248;8.252;2023-03-05T16:19:05;3.90;1.00
37408;DHT22;24866;50.248;8.252;2023-03-05T16:21:36;3.80;1.00
37408;DHT22;24866;50.248;8.252;2023-03-05T16:24:06;3.80;1.00
37408;DHT22;24866;50.248;8.252;2023-03-05T16:26:37;3.80;1.00
37408;DHT22;24866;50.248;8.252;2023-03-05T16:29:10;3.80;1.00
37408;DHT22;24866;50.248;8.252;2023-03-05T16:31:40;3.80;1.00
37408;DHT22;24866;50.248;8.252;2023-03-05T16:34:13;3.80;1.00
37408;DHT22;24866;50.248;8.252;2023-03-05T16:36:46;3.80;1.00
37408;DHT22;24866;50.248;8.252;2023-03-05T16:39:17;3.80;1.00